^^
Meteo Knjazevac Station Historical Data
Daily Summary for April 13, 2021 Units:  English    Metric   Both
Daily Weekly Monthly Yearly Custom
  High: Low: Average:
Temperature: 30.9 °F 30.6 °F 30.7 °F
Dew Point: 30.7 °F 30.2 °F 30.5 °F
Humidity: 99% 98% 99%
Wind Speed: 5mph 0mph 2mph
Wind Gust: 12mph - -
Wind- - SW
Pressure: 29.91 in 29.90 in -
Precipitation: 0.00 in    
Historical Graphs
 
 
Tabular Data for April 13, 2021
Time Temperature Dew Point Pressure Wind Wind Speed Wind Gust Humidity Rainfall Rate (Hourly) solar Conditions
00:00 30.9 °F 30.7 °F 29.91 in SW 3 mph 7 mph 99% 0.00 in 0 W/m2
00:10 30.9 °F 30.7 °F 29.91 in SW 2 mph 6 mph 99% 0.00 in 0 W/m2
00:20 30.9 °F 30.7 °F 29.91 in SW 1 mph 3 mph 99% 0.00 in 0 W/m2
00:30 30.9 °F 30.7 °F 29.91 in South 2 mph 5 mph 99% 0.00 in 0 W/m2
00:40 30.9 °F 30.7 °F 29.91 in SW 3 mph 5 mph 99% 0.00 in 0 W/m2
00:50 30.9 °F 30.7 °F 29.91 in SW 5 mph 12 mph 99% 0.00 in 0 W/m2
01:00 30.7 °F 30.5 °F 29.91 in SW 5 mph 12 mph 99% 0.00 in 0 W/m2
01:10 30.7 °F 30.5 °F 29.91 in SW 2 mph 6 mph 99% 0.00 in 0 W/m2
01:20 30.7 °F 30.5 °F 29.91 in SSW 2 mph 6 mph 99% 0.00 in 0 W/m2
01:30 30.7 °F 30.5 °F 29.91 in SW 2 mph 5 mph 99% 0.00 in 0 W/m2
01:40 30.7 °F 30.5 °F 29.91 in SSW 1 mph 4 mph 99% 0.00 in 0 W/m2
01:50 30.6 °F 30.4 °F 29.91 in WSW 1 mph 3 mph 99% 0.00 in 0 W/m2
02:00 30.7 °F 30.5 °F 29.91 in WSW 1 mph 4 mph 99% 0.00 in 0 W/m2
02:10 30.7 °F 30.5 °F 29.91 in SW 2 mph 6 mph 99% 0.00 in 0 W/m2
02:20 30.7 °F 30.5 °F 29.91 in SSW 1 mph 5 mph 99% 0.00 in 0 W/m2
02:30 30.7 °F 30.5 °F 29.91 in SSW 2 mph 5 mph 99% 0.00 in 0 W/m2
02:40 30.7 °F 30.5 °F 29.91 in SW 2 mph 5 mph 99% 0.00 in 0 W/m2
02:50 30.7 °F 30.5 °F 29.91 in SW 1 mph 3 mph 99% 0.00 in 0 W/m2
03:00 30.7 °F 30.5 °F 29.91 in SW 2 mph 4 mph 99% 0.00 in 0 W/m2
03:10 30.7 °F 30.5 °F 29.91 in WSW 1 mph 4 mph 99% 0.00 in 0 W/m2
03:20 30.7 °F 30.5 °F 29.91 in WSW 3 mph 6 mph 99% 0.00 in 0 W/m2
03:30 30.7 °F 30.5 °F 29.90 in SSW 2 mph 7 mph 99% 0.00 in 0 W/m2
03:40 30.7 °F 30.5 °F 29.91 in SW 1 mph 5 mph 99% 0.00 in 0 W/m2
03:50 30.7 °F 30.5 °F 29.91 in SSW 2 mph 4 mph 99% 0.00 in 0 W/m2
04:00 30.7 °F 30.5 °F 29.91 in SW 2 mph 7 mph 99% 0.00 in 0 W/m2
04:10 30.9 °F 30.7 °F 29.91 in SW 3 mph 8 mph 99% 0.00 in 0 W/m2
04:20 30.7 °F 30.2 °F 29.90 in SW 3 mph 7 mph 98% 0.00 in 0 W/m2
04:30 30.7 °F 30.2 °F 29.91 in SW 3 mph 8 mph 98% 0.00 in 0 W/m2
04:40 30.9 °F 30.4 °F 29.91 in WSW 3 mph 9 mph 98% 0.00 in 0 W/m2
04:50 30.7 °F 30.2 °F 29.91 in WSW 1 mph 6 mph 98% 0.00 in 0 W/m2
05:00 30.9 °F 30.4 °F 29.91 in SW 1 mph 7 mph 98% 0.00 in 0 W/m2
05:10 30.7 °F 30.2 °F 29.91 in SW 1 mph 3 mph 98% 0.00 in 0 W/m2
05:20 30.7 °F 30.2 °F 29.91 in SW 2 mph 4 mph 98% 0.00 in 0 W/m2
05:30 30.7 °F 30.2 °F 29.90 in Calm   5 mph 98% 0.00 in 0 W/m2
05:40 30.7 °F 30.2 °F 29.91 in South 1 mph 5 mph 98% 0.00 in 0 W/m2
05:50 30.7 °F 30.5 °F 29.90 in SSE 1 mph 5 mph 99% 0.00 in 0 W/m2
06:00 30.7 °F 30.5 °F 29.90 in SSE 3 mph 11 mph 99% 0.00 in 0 W/m2
06:10 30.7 °F 30.5 °F 29.90 in SSW 2 mph 6 mph 99% 0.00 in 0 W/m2
Knjazevac, Serbia
Compliments of Weather Underground - 2 mb